Time;durP1;ratioP1;P1;durP2;ratioP2;P2;SDS_P1;SDS_P2;PMS_P1;PMS_P2;Temp;Humidity;BMP_temperature;BMP_pressure;BME280_temperature;BME280_humidity;BME280_pressure;Samples;Min_cycle;Max_cycle;Signal;HPM_P1;HPM_P2
2021/05/25 00:07:54;;;;;;;0.20;0.10;;;17.60;99.90;;;;;;20611727;28;20195;-73
2021/05/25 00:17:58;;;;;;;0.33;0.33;;;17.50;99.90;;;;;;20628572;28;20276;-74
2021/05/25 00:28:01;;;;;;;3.07;0.37;;;17.60;99.90;;;;;;20620337;28;20287;-75
2021/05/25 00:38:05;;;;;;;5.00;0.43;;;17.50;99.90;;;;;;20621240;28;20246;-74
2021/05/25 00:48:09;;;;;;;0.33;0.30;;;17.50;99.90;;;;;;20625163;28;21058;-76
2021/05/25 00:58:13;;;;;;;0.23;0.20;;;17.30;99.90;;;;;;20626203;28;20318;-75
2021/05/25 01:08:16;;;;;;;0.20;0.13;;;17.40;99.90;;;;;;20625634;28;20242;-74
2021/05/25 01:18:20;;;;;;;1.87;0.70;;;17.30;99.90;;;;;;20622878;28;20703;-75
2021/05/25 01:28:24;;;;;;;0.30;0.30;;;17.30;99.90;;;;;;20624511;28;20326;-74
2021/05/25 01:38:28;;;;;;;0.23;0.13;;;17.20;99.90;;;;;;20622795;28;20762;-73
2021/05/25 01:48:32;;;;;;;0.20;0.10;;;17.20;99.90;;;;;;20623796;28;20195;-75
2021/05/25 01:58:35;;;;;;;1.27;0.83;;;17.20;99.90;;;;;;20622488;28;20223;-75
2021/05/25 02:08:40;;;;;;;2.20;0.60;;;17.10;99.90;;;;;;20621378;28;20199;-74
2021/05/25 02:18:45;;;;;;;1.07;1.07;;;16.70;99.90;;;;;;20620251;28;20231;-73
2021/05/25 02:28:49;;;;;;;1.87;0.80;;;16.70;99.90;;;;;;20620214;28;20586;-73
2021/05/25 02:38:52;;;;;;;0.20;0.10;;;16.20;99.90;;;;;;20615454;28;20227;-72
2021/05/25 02:48:56;;;;;;;30.67;0.83;;;16.10;99.90;;;;;;20618561;28;21165;-72
2021/05/25 02:58:59;;;;;;;0.30;0.30;;;16.10;99.90;;;;;;20597698;28;20242;-73
2021/05/25 03:09:04;;;;;;;19.80;1.07;;;16.10;99.90;;;;;;20626679;23;20249;-70
2021/05/25 03:19:10;;;;;;;0.20;0.10;;;16.20;99.90;;;;;;20613822;28;20776;-71
2021/05/25 03:29:14;;;;;;;0.83;0.83;;;16.20;99.90;;;;;;20614616;28;20195;-69
2021/05/25 03:39:17;;;;;;;0.20;0.20;;;16.20;99.90;;;;;;20611884;28;20231;-70
2021/05/25 03:49:21;;;;;;;2.20;1.40;;;16.30;99.90;;;;;;20595839;28;21016;-70
2021/05/25 03:59:24;;;;;;;1.53;0.47;;;16.40;99.90;;;;;;20627437;23;20227;-72
2021/05/25 04:09:28;;;;;;;3.63;1.10;;;16.40;99.90;;;;;;20580576;28;20828;-73
2021/05/25 04:19:31;;;;;;;0.73;0.57;;;16.40;99.90;;;;;;20524476;28;20747;-73
2021/05/25 04:29:35;;;;;;;2.33;0.60;;;16.50;99.90;;;;;;20592745;28;20203;-73
2021/05/25 04:39:38;;;;;;;3.30;0.27;;;16.70;99.90;;;;;;20635777;28;20708;-74
2021/05/25 04:49:42;;;;;;;0.20;0.00;;;16.70;99.90;;;;;;20663871;28;20215;-75
2021/05/25 04:59:45;;;;;;;1.33;0.73;;;16.70;99.90;;;;;;20624139;28;20231;-74
2021/05/25 05:09:49;;;;;;;0.20;0.10;;;16.80;99.90;;;;;;20590648;28;20655;-74
2021/05/25 05:19:53;;;;;;;0.30;0.27;;;16.90;99.90;;;;;;20558617;28;20552;-73
2021/05/25 05:29:57;;;;;;;2.80;0.67;;;16.90;99.90;;;;;;20603907;28;20246;-72
2021/05/25 05:40:00;;;;;;;6.13;1.37;;;17.10;99.90;;;;;;20619597;28;20679;-77
2021/05/25 05:50:10;;;;;;;0.30;0.30;;;17.30;99.90;;;;;;20619705;28;20230;-74
2021/05/25 06:00:15;;;;;;;0.27;0.20;;;17.20;99.90;;;;;;20630511;28;20310;-72
2021/05/25 06:10:19;;;;;;;0.23;0.23;;;17.40;99.90;;;;;;20662520;28;20558;-74
2021/05/25 06:20:22;;;;;;;0.33;0.33;;;17.40;99.90;;;;;;20698184;28;20655;-74
2021/05/25 06:30:27;;;;;;;0.87;0.87;;;17.60;99.90;;;;;;20699615;28;20195;-74
2021/05/25 06:40:31;;;;;;;3.70;1.00;;;17.90;99.90;;;;;;20696762;28;20349;-73
2021/05/25 06:50:36;;;;;;;1.13;0.97;;;17.90;99.90;;;;;;20697041;28;20190;-73
2021/05/25 07:00:39;;;;;;;0.90;0.87;;;17.90;99.90;;;;;;20696688;28;20699;-69
2021/05/25 07:10:43;;;;;;;0.60;0.20;;;18.10;99.90;;;;;;20653459;28;20465;-72
2021/05/25 07:20:48;;;;;;;1.50;0.73;;;18.30;99.90;;;;;;20644028;28;20226;-73
2021/05/25 07:30:52;;;;;;;0.37;0.33;;;18.70;99.90;;;;;;20677541;28;20209;-68
2021/05/25 07:40:55;;;;;;;1.10;0.73;;;18.20;99.90;;;;;;20611468;28;20223;-71
2021/05/25 07:51:00;;;;;;;9.20;0.73;;;18.20;99.90;;;;;;20610188;28;20661;-69
2021/05/25 08:01:03;;;;;;;0.50;0.50;;;18.00;99.90;;;;;;20610802;28;20239;-70
2021/05/25 08:11:12;;;;;;;1.90;0.60;;;17.90;99.90;;;;;;20575601;28;20188;-69
2021/05/25 08:21:16;;;;;;;0.77;0.77;;;18.10;99.90;;;;;;20605066;28;20231;-70
2021/05/25 08:31:20;;;;;;;0.20;0.00;;;18.00;99.90;;;;;;20600644;28;20196;-73
2021/05/25 08:41:23;;;;;;;0.20;0.10;;;18.20;99.90;;;;;;20608215;28;20231;-70
2021/05/25 08:51:27;;;;;;;0.27;0.27;;;18.20;99.90;;;;;;20582273;28;20304;-70
2021/05/25 09:01:30;;;;;;;0.60;0.40;;;17.90;99.90;;;;;;20625614;28;20377;-70
2021/05/25 09:11:52;;;;;;;0.80;0.43;;;17.70;99.90;;;;;;20622874;28;20195;-70
2021/05/25 09:21:55;;;;;;;0.30;0.27;;;17.40;99.90;;;;;;20619638;28;20684;-70
2021/05/25 09:31:59;;;;;;;0.60;0.60;;;17.40;99.90;;;;;;20622356;28;20283;-68
2021/05/25 09:42:04;;;;;;;0.30;0.30;;;17.20;99.90;;;;;;20610643;28;20233;-70
2021/05/25 09:52:10;;;;;;;0.37;0.37;;;17.30;99.90;;;;;;20617228;28;20192;-69
2021/05/25 10:02:17;;;;;;;10.17;0.53;;;17.90;99.90;;;;;;20618686;28;20231;-70
2021/05/25 10:12:22;;;;;;;1.70;0.77;;;18.10;99.90;;;;;;20615140;28;20496;-67
2021/05/25 10:22:26;;;;;;;0.20;0.10;;;18.10;99.90;;;;;;20616343;28;20851;-71
2021/05/25 10:32:31;;;;;;;0.40;0.40;;;17.80;99.90;;;;;;20597621;28;20301;-70
2021/05/25 10:42:34;;;;;;;0.60;0.60;;;17.60;99.90;;;;;;20615288;28;20227;-70
2021/05/25 10:53:22;;;;;;;4.33;1.80;;;17.60;99.90;;;;;;20615515;28;20218;-69
2021/05/25 11:03:28;;;;;;;0.97;0.60;;;17.70;99.90;;;;;;20636102;28;20254;-72
2021/05/25 11:13:37;;;;;;;5.00;1.70;;;17.50;99.90;;;;;;20685227;28;20221;-71
2021/05/25 11:23:42;;;;;;;0.50;0.37;;;18.30;99.90;;;;;;20629986;28;20187;-70
2021/05/25 11:33:46;;;;;;;4.43;1.10;;;19.90;99.90;;;;;;20527621;28;20643;-72
2021/05/25 11:44:00;;;;;;;0.30;0.30;;;19.90;99.90;;;;;;20588906;28;20230;-68
2021/05/25 11:54:13;;;;;;;2.77;0.67;;;18.70;99.90;;;;;;20610065;28;20235;-73
2021/05/25 12:04:18;;;;;;;0.57;0.33;;;18.70;99.90;;;;;;20609594;28;20235;-72
2021/05/25 12:14:28;;;;;;;0.27;0.27;;;19.40;99.90;;;;;;20610928;28;21219;-71
2021/05/25 12:24:32;;;;;;;1.30;0.83;;;20.00;99.90;;;;;;20608837;28;20409;-70
2021/05/25 12:34:36;;;;;;;0.27;0.23;;;19.80;99.90;;;;;;20528171;28;20732;-72
2021/05/25 12:44:39;;;;;;;4.47;1.00;;;19.10;99.90;;;;;;20527848;28;20240;-70
2021/05/25 12:54:52;;;;;;;0.50;0.50;;;18.70;99.90;;;;;;20533645;28;20349;-70
2021/05/25 13:05:05;;;;;;;0.20;0.10;;;18.60;99.90;;;;;;20542401;28;20227;-71
2021/05/25 13:15:11;;;;;;;3.27;0.77;;;18.50;99.90;;;;;;20618988;28;20241;-69
2021/05/25 13:25:15;;;;;;;0.20;0.10;;;19.40;99.90;;;;;;20600252;28;20195;-70
2021/05/25 13:35:19;;;;;;;12.13;1.20;;;21.10;99.90;;;;;;20615667;28;20330;-69
2021/05/25 13:45:22;;;;;;;5.68;0.63;;;22.70;99.90;;;;;;20562435;28;20200;-70
2021/05/25 13:55:27;;;;;;;5.15;0.95;;;23.40;99.90;;;;;;20551312;28;20959;-69
2021/05/25 14:05:30;;;;;;;0.22;0.20;;;24.50;99.90;;;;;;20557233;28;20232;-69
2021/05/25 14:15:37;;;;;;;1.10;0.20;;;24.80;99.90;;;;;;20687567;28;20282;-69
2021/05/25 14:25:40;;;;;;;0.25;0.15;;;26.30;99.90;;;;;;20611233;28;20211;-72
2021/05/25 14:35:44;;;;;;;3.15;0.25;;;25.90;99.90;;;;;;20612532;28;20230;-70
2021/05/25 14:45:48;;;;;;;1.13;0.32;;;25.20;99.90;;;;;;20612343;28;20200;-69
2021/05/25 14:55:56;;;;;;;1.27;1.17;;;26.10;99.90;;;;;;20613389;28;20255;-71
2021/05/25 15:06:05;;;;;;;2.47;1.20;;;26.10;99.90;;;;;;20616807;28;20236;-69
2021/05/25 15:16:11;;;;;;;0.30;0.20;;;26.60;99.90;;;;;;20681075;28;20828;-68
2021/05/25 15:26:15;;;;;;;5.50;1.45;;;26.30;99.90;;;;;;20611439;28;20210;-68
2021/05/25 15:36:19;;;;;;;0.30;0.20;;;26.20;99.90;;;;;;20609282;28;20235;-71
2021/05/25 15:46:22;;;;;;;0.82;0.75;;;26.40;99.90;;;;;;20595346;28;20199;-70
2021/05/25 15:56:26;;;;;;;1.67;0.57;;;25.80;99.90;;;;;;20610264;28;20659;-71
2021/05/25 16:06:29;;;;;;;1.20;0.20;;;25.90;99.90;;;;;;20601706;28;20645;-72
2021/05/25 16:16:33;;;;;;;0.47;0.30;;;26.00;99.90;;;;;;20698822;28;20540;-71
2021/05/25 16:26:37;;;;;;;0.30;0.25;;;25.60;99.90;;;;;;20686048;28;20675;-69
2021/05/25 16:36:41;;;;;;;0.68;0.68;;;25.10;99.90;;;;;;20551041;28;20268;-71
2021/05/25 16:46:44;;;;;;;1.95;0.65;;;24.80;99.90;;;;;;20543464;28;20215;-73
2021/05/25 16:56:50;;;;;;;0.53;0.40;;;25.10;99.90;;;;;;20540372;28;20688;-73
2021/05/25 17:06:56;;;;;;;0.80;0.47;;;24.70;99.90;;;;;;20567266;28;20341;-72
2021/05/25 17:27:20;;;;;;;0.37;0.33;;;22.00;99.90;;;;;;20627736;28;20687;-70
2021/05/25 17:37:24;;;;;;;0.20;0.20;;;21.50;99.90;;;;;;20677343;28;20285;-76
2021/05/25 17:47:27;;;;;;;0.40;0.40;;;21.90;99.90;;;;;;20702024;28;20624;-72
2021/05/25 17:57:32;;;;;;;0.40;0.40;;;21.90;99.90;;;;;;20700135;28;20421;-69
2021/05/25 18:07:39;;;;;;;8.43;0.90;;;22.20;99.90;;;;;;20697828;28;20232;-70
2021/05/25 18:17:44;;;;;;;5.37;1.17;;;20.40;99.90;;;;;;20701345;28;20237;-71
2021/05/25 18:27:47;;;;;;;2.83;0.80;;;19.20;99.90;;;;;;20701783;28;20199;-71
2021/05/25 18:38:09;;;;;;;15.50;1.27;;;18.80;99.90;;;;;;20678134;28;20234;-74
2021/05/25 18:48:12;;;;;;;0.20;0.20;;;18.50;99.90;;;;;;20685323;28;20206;-72
2021/05/25 18:58:27;;;;;;;0.43;0.17;;;18.50;99.90;;;;;;20661826;28;20235;-72
2021/05/25 19:08:31;;;;;;;1.47;0.47;;;18.30;99.90;;;;;;20650747;28;20223;-74
2021/05/25 19:18:37;;;;;;;0.20;0.10;;;18.20;99.90;;;;;;20716042;28;20582;-73
2021/05/25 19:28:41;;;;;;;2.57;2.37;;;18.10;99.90;;;;;;20715066;28;20233;-73
2021/05/25 19:38:46;;;;;;;3.23;0.30;;;18.00;99.90;;;;;;20709654;28;20232;-72
2021/05/25 19:48:49;;;;;;;5.17;1.30;;;18.00;99.90;;;;;;20650036;28;20806;-72
2021/05/25 19:58:53;;;;;;;0.20;0.10;;;17.90;99.90;;;;;;20627350;28;20251;-72
2021/05/25 20:08:57;;;;;;;0.30;0.30;;;17.90;99.90;;;;;;20651623;28;20344;-73
2021/05/25 20:19:01;;;;;;;1.43;0.57;;;17.60;99.90;;;;;;20719801;28;20290;-75
2021/05/25 20:29:04;;;;;;;1.33;1.20;;;17.70;99.90;;;;;;20716040;28;20527;-71
2021/05/25 20:39:10;;;;;;;1.53;1.37;;;17.60;99.90;;;;;;20658094;28;20207;-70
2021/05/25 20:49:14;;;;;;;0.20;0.03;;;17.20;99.90;;;;;;20625975;28;20218;-71
2021/05/25 20:59:18;;;;;;;7.60;0.93;;;17.00;99.90;;;;;;20590427;28;20253;-71
2021/05/25 21:09:24;;;;;;;0.20;0.10;;;16.80;99.90;;;;;;20625560;28;20410;-71
2021/05/25 21:19:28;;;;;;;0.90;0.87;;;16.80;99.90;;;;;;20614752;28;20225;-70
2021/05/25 21:29:31;;;;;;;0.30;0.20;;;16.70;99.90;;;;;;20622547;28;20496;-71
2021/05/25 21:39:35;;;;;;;0.77;0.40;;;16.50;99.90;;;;;;20619262;28;20281;-71
2021/05/25 21:49:38;;;;;;;0.40;0.23;;;16.30;99.90;;;;;;20621828;28;20278;-71
2021/05/25 21:59:42;;;;;;;1.03;0.93;;;16.20;99.90;;;;;;20617687;28;20235;-71
2021/05/25 22:09:45;;;;;;;4.20;0.57;;;15.90;99.90;;;;;;20635245;28;20203;-71
2021/05/25 22:19:49;;;;;;;0.23;0.13;;;15.70;99.90;;;;;;20671033;28;20325;-71
2021/05/25 22:29:52;;;;;;;0.30;0.10;;;15.70;99.90;;;;;;20600591;28;20603;-70
2021/05/25 22:39:56;;;;;;;0.30;0.23;;;15.60;99.90;;;;;;20687742;28;20242;-72
2021/05/25 22:49:59;;;;;;;0.20;0.10;;;15.40;99.90;;;;;;20699785;28;20533;-72
2021/05/25 23:00:05;;;;;;;0.20;0.10;;;15.10;99.90;;;;;;20695199;28;20238;-73
2021/05/25 23:10:10;;;;;;;1.03;1.03;;;15.00;99.90;;;;;;20694639;28;20464;-70
2021/05/25 23:20:15;;;;;;;0.20;0.10;;;14.80;99.90;;;;;;20694009;28;20226;-70
2021/05/25 23:30:20;;;;;;;0.30;0.20;;;14.70;99.90;;;;;;20694754;28;20211;-71
2021/05/25 23:40:25;;;;;;;1.87;1.13;;;14.80;99.90;;;;;;20693042;28;20250;-69
2021/05/25 23:50:28;;;;;;;0.20;0.10;;;14.40;99.90;;;;;;20700497;28;20240;-70
